Time;durP1;ratioP1;P1;durP2;ratioP2;P2;SDS_P1;SDS_P2;PMS_P1;PMS_P2;Temp;Humidity;BMP_temperature;BMP_pressure;BME280_temperature;BME280_humidity;BME280_pressure;Samples;Min_cycle;Max_cycle;Signal;HPM_P1;HPM_P2
2021/12/11 00:02:22;;;;;;;3.00;1.40;;;;;;;1.68;100.00;97661.03;5138905;27;20072;-79
2021/12/11 00:04:51;;;;;;;;;;;;;;;1.80;100.00;97688.38;5138396;27;20072;-79
2021/12/11 00:07:20;;;;;;;2.50;1.48;;;;;;;1.69;100.00;97684.16;5140644;27;20362;-79
2021/12/11 00:09:52;;;;;;;4.22;1.70;;;;;;;1.79;100.00;97697.41;5142470;27;20055;-79
2021/12/11 00:12:22;;;;;;;4.18;1.80;;;;;;;1.71;100.00;97695.53;5148374;27;20062;-78
2021/12/11 00:14:52;;;;;;;2.92;1.90;;;;;;;1.69;100.00;97701.06;5151992;27;20061;-79
2021/12/11 00:17:22;;;;;;;3.63;1.90;;;;;;;1.78;100.00;97723.38;5148007;27;20148;-79
2021/12/11 00:19:49;;;;;;;3.75;1.83;;;;;;;1.57;100.00;97699.72;5137664;27;20043;-79
2021/12/11 00:22:19;;;;;;;6.20;2.20;;;;;;;1.71;100.00;97722.34;5144140;27;20114;-79
2021/12/11 00:24:46;;;;;;;3.58;1.95;;;;;;;1.67;100.00;97712.94;5139900;27;20431;-79
2021/12/11 00:27:18;;;;;;;8.65;2.17;;;;;;;1.70;100.00;97726.88;5149552;27;20046;-79
2021/12/11 00:29:45;;;;;;;7.13;1.98;;;;;;;1.65;100.00;97728.34;5149496;27;20058;-79
2021/12/11 00:32:18;;;;;;;4.28;2.83;;;;;;;1.55;100.00;97717.75;5142251;27;20130;-79
2021/12/11 00:34:46;;;;;;;8.52;2.90;;;;;;;1.65;100.00;97734.53;5145996;27;20042;-79
2021/12/11 00:37:17;;;;;;;7.20;2.75;;;;;;;1.54;100.00;97719.63;5147746;27;20046;-79
2021/12/11 00:39:47;;;;;;;12.70;3.15;;;;;;;1.59;100.00;97733.34;5141475;27;20047;-79
2021/12/11 00:42:17;;;;;;;5.53;2.88;;;;;;;1.66;100.00;97748.78;5143765;27;20054;-79
2021/12/11 00:44:45;;;;;;;;;;;;;;;1.61;100.00;97749.25;5153510;27;20054;-79
2021/12/11 00:47:15;;;;;;;10.20;3.17;;;;;;;1.57;100.00;97743.41;5141817;27;19919;-79
2021/12/11 00:49:50;;;;;;;7.78;3.30;;;;;;;1.53;100.00;97747.38;5151061;27;20046;-79
2021/12/11 00:52:17;;;;;;;5.18;2.65;;;;;;;1.47;100.00;97749.91;5144716;27;20039;-79
2021/12/11 00:54:46;;;;;;;6.53;2.33;;;;;;;1.57;100.00;97767.50;5132987;27;20051;-79
2021/12/11 00:57:20;;;;;;;7.45;3.13;;;;;;;1.49;100.00;97780.03;5139458;27;20070;-79
2021/12/11 00:59:47;;;;;;;5.78;2.50;;;;;;;1.53;100.00;97781.38;5143804;27;20055;-79
2021/12/11 01:02:14;;;;;;;5.47;2.85;;;;;;;1.53;100.00;97792.09;5135166;27;20047;-79
2021/12/11 01:04:42;;;;;;;4.80;2.47;;;;;;;1.52;100.00;97780.56;5141710;27;20050;-79
2021/12/11 01:07:18;;;;;;;3.90;3.13;;;;;;;1.54;100.00;97785.75;5136443;27;20043;-79
2021/12/11 01:09:48;;;;;;;6.10;3.03;;;;;;;1.42;100.00;97775.31;5142377;27;20051;-79
2021/12/11 01:12:23;;;;;;;2.97;2.60;;;;;;;1.63;100.00;97810.75;5146286;27;20119;-79
2021/12/11 01:14:56;;;;;;;3.45;2.85;;;;;;;1.46;100.00;97807.97;5147796;27;20082;-79
2021/12/11 01:17:31;;;;;;;4.22;3.25;;;;;;;1.49;100.00;97810.34;5148950;27;20042;-79
2021/12/11 01:20:02;;;;;;;5.43;3.20;;;;;;;1.58;100.00;97820.09;5147694;27;20039;-79
2021/12/11 01:22:34;;;;;;;8.15;3.58;;;;;;;1.52;100.00;97818.06;5136459;27;20173;-79
2021/12/11 01:25:03;;;;;;;7.00;3.25;;;;;;;1.51;100.00;97812.84;5151255;27;20061;-78
2021/12/11 01:27:32;;;;;;;3.55;3.10;;;;;;;1.56;100.00;97834.63;5147028;27;20378;-79
2021/12/11 01:30:01;;;;;;;6.53;3.17;;;;;;;1.58;100.00;97837.97;5145263;27;20046;-79
2021/12/11 01:32:31;;;;;;;4.70;3.10;;;;;;;1.52;100.00;97839.47;5144461;27;20050;-78
2021/12/11 01:34:58;;;;;;;;;;;;;;;1.57;100.00;97861.25;5134913;27;20047;-79
2021/12/11 01:37:26;;;;;;;6.55;3.20;;;;;;;1.49;100.00;97845.16;5142726;27;19934;-79
2021/12/11 01:39:53;;;;;;;8.38;3.60;;;;;;;1.46;100.00;97864.22;5136831;27;20044;-79
2021/12/11 01:42:24;;;;;;;6.15;3.58;;;;;;;1.52;100.00;97873.44;5153254;27;20043;-78
2021/12/11 01:44:54;;;;;;;5.80;4.32;;;;;;;1.54;100.00;97890.22;5146775;27;20038;-79
2021/12/11 01:47:26;;;;;;;6.18;3.75;;;;;;;1.48;100.00;97878.28;5146774;27;20054;-79
2021/12/11 01:49:57;;;;;;;5.78;3.58;;;;;;;1.38;100.00;97885.59;5155102;27;20053;-79
2021/12/11 01:52:34;;;;;;;10.15;4.13;;;;;;;1.41;100.00;97898.66;5130636;27;20486;-78
2021/12/11 01:55:07;;;;;;;5.53;3.97;;;;;;;1.33;100.00;97896.78;5147237;27;20375;-78
2021/12/11 01:57:34;;;;;;;6.88;4.47;;;;;;;1.35;100.00;97902.81;5146702;27;20047;-78
2021/12/11 02:00:11;;;;;;;7.40;4.05;;;;;;;1.35;100.00;97910.84;5144104;27;20494;-78
2021/12/11 02:02:41;;;;;;;10.00;4.13;;;;;;;1.29;100.00;97916.81;5147682;27;20062;-79
2021/12/11 02:05:10;;;;;;;7.53;4.30;;;;;;;1.24;100.00;97922.66;5141837;27;20047;-78
2021/12/11 02:07:40;;;;;;;13.10;5.13;;;;;;;1.32;100.00;97927.22;5146712;27;20542;-78
2021/12/11 02:10:17;;;;;;;5.50;4.55;;;;;;;1.34;100.00;97933.28;5145187;27;20409;-78
2021/12/11 02:12:44;;;;;;;7.13;4.18;;;;;;;1.20;100.00;97923.94;5144338;27;20057;-79
2021/12/11 02:15:16;;;;;;;6.93;4.70;;;;;;;1.27;100.00;97931.38;5149159;27;20046;-79
2021/12/11 02:17:47;;;;;;;7.72;4.70;;;;;;;1.23;100.00;97938.88;5147318;27;20057;-78
2021/12/11 02:20:26;;;;;;;7.75;4.43;;;;;;;1.28;100.00;97949.97;5142866;27;20055;-78
2021/12/11 02:22:57;;;;;;;8.52;4.22;;;;;;;1.21;100.00;97952.41;5140182;27;20107;-78
2021/12/11 02:25:28;;;;;;;6.63;4.03;;;;;;;1.09;100.00;97950.97;5151832;27;20107;-78
2021/12/11 02:27:58;;;;;;;6.15;3.83;;;;;;;1.13;100.00;97964.88;5146281;27;20489;-78
2021/12/11 02:30:26;;;;;;;;;;;;;;;1.19;100.00;97974.97;5154899;27;20459;-78
2021/12/11 02:32:59;;;;;;;4.47;3.22;;;;;;;1.04;100.00;97964.81;5147613;27;20418;-78
2021/12/11 02:35:32;;;;;;;6.15;3.75;;;;;;;1.09;100.00;97977.75;5141857;27;20394;-78
2021/12/11 02:38:08;;;;;;;4.75;3.40;;;;;;;1.08;100.00;97975.22;5135280;27;20085;-78
2021/12/11 02:40:41;;;;;;;3.70;3.20;;;;;;;1.06;100.00;97984.25;5140646;27;20050;-77
2021/12/11 02:43:16;;;;;;;5.82;3.28;;;;;;;1.01;100.00;97983.88;5138775;27;20050;-78
2021/12/11 02:45:45;;;;;;;5.00;3.42;;;;;;;0.99;100.00;97993.88;5147699;27;20095;-78
2021/12/11 02:48:16;;;;;;;4.88;3.53;;;;;;;0.95;100.00;97989.84;5137816;27;20481;-78
2021/12/11 02:50:49;;;;;;;3.40;3.00;;;;;;;1.00;100.00;98011.63;5134858;27;20067;-78
2021/12/11 02:53:25;;;;;;;5.53;3.88;;;;;;;0.96;100.00;97999.53;5150930;27;20050;-78
2021/12/11 02:55:56;;;;;;;4.70;3.42;;;;;;;1.13;100.00;98019.28;5144992;27;20046;-78
2021/12/11 02:58:27;;;;;;;4.97;3.83;;;;;;;1.03;100.00;98021.19;5144799;27;20374;-78
2021/12/11 03:00:58;;;;;;;5.82;3.50;;;;;;;1.00;100.00;98014.31;5139343;27;20057;-78
2021/12/11 03:03:29;;;;;;;9.20;3.97;;;;;;;1.11;100.00;98028.44;5137943;27;20050;-78
2021/12/11 03:06:03;;;;;;;5.40;3.38;;;;;;;1.04;100.00;98031.75;5145554;27;20454;-78
2021/12/11 03:08:32;;;;;;;6.45;4.20;;;;;;;1.00;100.00;98022.31;5140096;27;20051;-78
2021/12/11 03:11:03;;;;;;;6.60;4.18;;;;;;;0.99;100.00;98034.00;5140170;27;20047;-78
2021/12/11 03:13:31;;;;;;;5.72;3.90;;;;;;;1.13;100.00;98045.19;5134503;27;20509;-78
2021/12/11 03:15:58;;;;;;;6.18;3.78;;;;;;;1.05;100.00;98032.56;5137868;27;20092;-78
2021/12/11 03:18:26;;;;;;;6.40;4.30;;;;;;;1.05;100.00;98045.97;5138962;27;20051;-79
2021/12/11 03:20:53;;;;;;;6.68;3.97;;;;;;;1.13;100.00;98058.56;5143009;27;20051;-78
2021/12/11 03:23:20;;;;;;;4.57;3.63;;;;;;;1.19;100.00;98068.66;5139315;27;20408;-78
2021/12/11 03:25:49;;;;;;;6.07;3.90;;;;;;;1.15;100.00;98070.00;5140879;27;20076;-78
2021/12/11 03:28:19;;;;;;;5.47;3.72;;;;;;;1.01;100.00;98055.28;5144375;27;20051;-79
2021/12/11 03:30:56;;;;;;;5.07;4.00;;;;;;;1.04;100.00;98065.72;5139751;27;20054;-78
2021/12/11 03:33:25;;;;;;;7.50;4.82;;;;;;;1.11;100.00;98082.00;5144756;27;20053;-78
2021/12/11 03:35:55;;;;;;;4.38;3.55;;;;;;;1.10;100.00;98082.97;5137023;27;20055;-79
2021/12/11 03:38:22;;;;;;;8.60;4.80;;;;;;;1.09;100.00;98090.19;5136433;27;20047;-78
2021/12/11 03:40:52;;;;;;;7.90;4.88;;;;;;;1.09;100.00;98103.56;5138424;27;20092;-78
2021/12/11 03:43:22;;;;;;;6.28;4.35;;;;;;;1.13;100.00;98121.00;5133896;27;20050;-78
2021/12/11 03:45:57;;;;;;;5.68;4.43;;;;;;;1.19;100.00;98119.53;5143610;27;20043;-78
2021/12/11 03:48:27;;;;;;;6.13;4.22;;;;;;;1.20;100.00;98121.25;5141978;27;20047;-78
2021/12/11 03:50:54;;;;;;;9.07;4.97;;;;;;;1.17;100.00;98126.91;5139780;27;20088;-78
2021/12/11 03:53:22;;;;;;;10.00;4.40;;;;;;;1.17;100.00;98124.22;5144294;27;20047;-78
2021/12/11 03:55:54;;;;;;;5.97;4.25;;;;;;;1.18;100.00;98125.91;5144672;27;20042;-78
2021/12/11 03:58:22;;;;;;;6.55;4.22;;;;;;;1.31;100.00;98147.81;5135851;27;20051;-79
2021/12/11 04:00:53;;;;;;;5.60;4.28;;;;;;;1.25;100.00;98148.41;5138187;27;20422;-78
2021/12/11 04:03:25;;;;;;;6.35;4.15;;;;;;;1.20;100.00;98140.81;5141766;27;20498;-78
2021/12/11 04:05:53;;;;;;;4.63;3.65;;;;;;;1.21;100.00;98147.03;5133460;27;20548;-78
2021/12/11 04:08:28;;;;;;;4.85;3.63;;;;;;;1.30;100.00;98175.56;5134420;27;20050;-78
2021/12/11 04:10:57;;;;;;;6.95;4.47;;;;;;;1.18;100.00;98161.56;5140638;27;20108;-78
2021/12/11 04:13:24;;;;;;;4.95;3.45;;;;;;;1.17;100.00;98167.88;5137718;27;20042;-78
2021/12/11 04:15:54;;;;;;;8.50;4.47;;;;;;;1.36;100.00;98184.84;5137453;27;20107;-78
2021/12/11 04:18:21;;;;;;;;;;;;;;;1.33;100.00;98190.50;5134023;27;20100;-78
2021/12/11 04:20:50;;;;;;;5.53;3.88;;;;;;;1.36;100.00;98199.06;5145371;27;20013;-78
2021/12/11 04:23:17;;;;;;;6.43;3.95;;;;;;;1.40;100.00;98191.56;5134871;27;20047;-78
2021/12/11 04:25:48;;;;;;;6.28;3.97;;;;;;;1.42;100.00;98205.66;5144869;27;20047;-79
2021/12/11 04:28:20;;;;;;;6.57;4.47;;;;;;;1.27;100.00;98197.28;5136652;27;20445;-79
2021/12/11 04:30:49;;;;;;;8.88;5.28;;;;;;;1.26;100.00;98200.97;5148687;27;20828;-79
2021/12/11 04:33:16;;;;;;;8.05;5.45;;;;;;;1.29;100.00;98205.19;5135152;27;20051;-78
2021/12/11 04:35:44;;;;;;;7.60;5.30;;;;;;;1.13;100.00;98208.50;5146608;27;20043;-78
2021/12/11 04:38:13;;;;;;;7.75;4.97;;;;;;;1.34;100.00;98235.88;5152956;27;20062;-78
2021/12/11 04:40:47;;;;;;;6.60;4.70;;;;;;;1.15;100.00;98219.91;5134234;27;20096;-78
2021/12/11 04:43:19;;;;;;;7.85;5.55;;;;;;;1.14;100.00;98232.44;5144090;27;20042;-78
2021/12/11 04:45:50;;;;;;;7.10;5.22;;;;;;;1.17;100.00;98248.19;5150433;27;20046;-78
2021/12/11 04:48:25;;;;;;;11.25;6.85;;;;;;;1.13;100.00;98240.63;5138885;27;20399;-78
2021/12/11 04:50:58;;;;;;;11.00;6.50;;;;;;;1.15;100.00;98250.19;5141625;27;20039;-78
2021/12/11 04:53:41;;;;;;;12.35;7.72;;;;;;;1.16;100.00;98264.41;5143158;27;20057;-78
2021/12/11 04:56:33;;;;;;;13.35;7.80;;;;;;;1.08;100.00;98262.47;5133002;27;20043;-78
2021/12/11 04:59:21;;;;;;;13.55;8.23;;;;;;;1.04;100.00;98256.59;5137561;27;20059;-78
2021/12/11 05:01:59;;;;;;;16.42;8.45;;;;;;;1.12;100.00;98279.09;5137528;27;20122;-78
2021/12/11 05:04:45;;;;;;;14.65;7.97;;;;;;;1.04;100.00;98278.00;5137674;27;20066;-78
2021/12/11 05:07:25;;;;;;;19.27;10.10;;;;;;;1.04;100.00;98271.81;5137232;27;20051;-78
2021/12/11 05:09:58;;;;;;;13.80;7.25;;;;;;;1.18;100.00;98286.56;5142431;27;20126;-79
2021/12/11 05:12:34;;;;;;;16.05;9.02;;;;;;;1.20;100.00;98281.88;5151687;27;20055;-79
2021/12/11 05:15:05;;;;;;;13.63;8.32;;;;;;;1.24;100.00;98310.88;5143389;27;20096;-79
2021/12/11 05:17:32;;;;;;;10.95;6.53;;;;;;;1.17;100.00;98319.66;5142694;27;20051;-78
2021/12/11 05:19:59;;;;;;;13.30;8.05;;;;;;;1.20;100.00;98327.41;5137576;27;20084;-79
2021/12/11 05:22:26;;;;;;;12.52;8.00;;;;;;;1.21;100.00;98329.09;5144225;27;20126;-78
2021/12/11 05:24:56;;;;;;;13.57;8.07;;;;;;;1.16;100.00;98321.50;5144141;27;20084;-78
2021/12/11 05:27:23;;;;;;;14.57;8.20;;;;;;;1.19;100.00;98329.25;5142792;27;20050;-78
2021/12/11 05:29:50;;;;;;;10.60;7.30;;;;;;;1.23;100.00;98341.34;5150234;27;20039;-79
2021/12/11 05:32:22;;;;;;;9.93;5.78;;;;;;;1.08;100.00;98342.78;5143749;27;20095;-79
2021/12/11 05:34:50;;;;;;;10.05;6.78;;;;;;;1.15;100.00;98356.44;5155883;27;20554;-78
2021/12/11 05:37:17;;;;;;;11.00;7.20;;;;;;;1.09;100.00;98351.69;5150820;27;20054;-79
2021/12/11 05:39:45;;;;;;;13.25;7.70;;;;;;;1.17;100.00;98375.88;5151462;27;20047;-78
2021/12/11 05:42:13;;;;;;;15.93;7.57;;;;;;;1.15;100.00;98367.16;5138481;27;20051;-79
2021/12/11 05:44:40;;;;;;;12.70;7.72;;;;;;;1.03;100.00;98363.81;5144939;27;20047;-79
2021/12/11 05:47:08;;;;;;;14.30;8.68;;;;;;;1.03;100.00;98372.66;5142973;27;20047;-78
2021/12/11 05:49:37;;;;;;;13.30;8.27;;;;;;;1.09;100.00;98384.63;5149849;27;20091;-78
2021/12/11 05:52:07;;;;;;;14.13;8.40;;;;;;;1.18;100.00;98391.81;5144366;27;20065;-79
2021/12/11 05:54:36;;;;;;;14.68;8.95;;;;;;;1.09;100.00;98391.84;5136398;27;20040;-79
2021/12/11 05:57:07;;;;;;;14.98;9.13;;;;;;;1.18;100.00;98404.34;5149461;27;20035;-78
2021/12/11 05:59:34;;;;;;;13.25;7.40;;;;;;;0.99;100.00;98391.84;5145659;27;20042;-79
2021/12/11 06:02:06;;;;;;;16.17;10.05;;;;;;;1.04;100.00;98411.84;5142678;27;20508;-78
2021/12/11 06:04:37;;;;;;;17.52;10.52;;;;;;;1.04;100.00;98416.34;5138234;27;20043;-78
2021/12/11 06:07:06;;;;;;;18.15;9.95;;;;;;;1.04;100.00;98416.34;5145866;27;20180;-79
2021/12/11 06:09:34;;;;;;;16.15;9.60;;;;;;;1.13;100.00;98436.91;5148415;27;20050;-79
2021/12/11 06:12:05;;;;;;;17.45;9.05;;;;;;;1.09;100.00;98430.16;5143516;27;20043;-78
2021/12/11 06:14:33;;;;;;;15.40;8.93;;;;;;;0.99;100.00;98432.81;5136706;27;20062;-79
2021/12/11 06:17:03;;;;;;;16.40;9.30;;;;;;;1.08;100.00;98441.84;5132667;27;20099;-79
2021/12/11 06:19:30;;;;;;;17.38;9.40;;;;;;;1.10;100.00;98444.38;5151259;27;20082;-78
2021/12/11 06:21:59;;;;;;;17.85;8.95;;;;;;;1.13;100.00;98454.78;5140461;27;20047;-81
2021/12/11 06:24:28;;;;;;;15.90;9.50;;;;;;;1.13;100.00;98460.16;5145802;27;20070;-81
2021/12/11 06:26:56;;;;;;;14.18;9.13;;;;;;;1.06;100.00;98460.72;5139468;27;20038;-79
2021/12/11 06:29:23;;;;;;;17.83;10.70;;;;;;;1.04;100.00;98451.16;5154566;27;20050;-79
2021/12/11 06:31:52;;;;;;;22.40;11.30;;;;;;;0.93;100.00;98452.13;5143948;27;20489;-79
2021/12/11 06:34:20;;;;;;;16.75;9.57;;;;;;;0.93;100.00;98460.16;5148524;27;20479;-78
2021/12/11 06:36:49;;;;;;;22.27;10.73;;;;;;;1.02;100.00;98485.22;5138986;27;20039;-79
2021/12/11 06:39:21;;;;;;;25.23;10.90;;;;;;;1.03;100.00;98484.25;5144505;27;20051;-79
2021/12/11 06:41:51;;;;;;;18.33;11.40;;;;;;;1.02;100.00;98487.91;5143183;27;20042;-80
2021/12/11 06:44:18;;;;;;;22.08;11.45;;;;;;;1.14;100.00;98502.00;5138854;27;20502;-81
2021/12/11 06:46:46;;;;;;;19.25;11.05;;;;;;;0.94;100.00;98485.09;5146547;27;20035;-81
2021/12/11 06:49:13;;;;;;;21.95;11.38;;;;;;;1.04;100.00;98499.34;5136248;27;20406;-80
2021/12/11 06:51:40;;;;;;;17.70;11.63;;;;;;;0.99;100.00;98501.56;5135118;27;20043;-84
2021/12/11 06:54:11;;;;;;;18.85;11.93;;;;;;;1.08;100.00;98505.25;5146237;27;20069;-79
2021/12/11 06:56:41;;;;;;;18.85;12.02;;;;;;;1.17;100.00;98534.69;5136291;27;20058;-79
2021/12/11 06:59:08;;;;;;;;;;;;;;;1.13;100.00;98529.75;5138282;27;20393;-79
2021/12/11 07:01:36;;;;;;;15.43;9.45;;;;;;;1.03;100.00;98527.91;5134799;27;20002;-79
2021/12/11 07:04:06;;;;;;;21.00;11.45;;;;;;;1.11;100.00;98532.56;5136575;27;20159;-78
2021/12/11 07:06:35;;;;;;;23.60;12.20;;;;;;;1.11;100.00;98534.41;5146784;27;20047;-79
2021/12/11 07:09:04;;;;;;;20.23;12.00;;;;;;;1.15;100.00;98555.41;5146676;27;20046;-79
2021/12/11 07:11:32;;;;;;;24.50;12.63;;;;;;;1.14;100.00;98567.09;5149661;27;20122;-78
2021/12/11 07:14:01;;;;;;;24.20;12.80;;;;;;;1.13;100.00;98568.09;5137478;27;20046;-79
2021/12/11 07:16:29;;;;;;;22.10;10.98;;;;;;;1.14;100.00;98585.00;5136719;27;20475;-79
2021/12/11 07:18:55;;;;;;;18.63;10.10;;;;;;;1.04;100.00;98575.13;5134825;27;20043;-79
2021/12/11 07:21:22;;;;;;;21.17;12.70;;;;;;;1.09;100.00;98581.91;5142404;27;20095;-79
2021/12/11 07:23:49;;;;;;;19.50;11.57;;;;;;;1.04;100.00;98591.19;5135060;27;20183;-78
2021/12/11 07:26:22;;;;;;;22.75;12.27;;;;;;;1.03;100.00;98589.50;5145356;27;20482;-79
2021/12/11 07:28:51;;;;;;;19.63;11.35;;;;;;;1.11;100.00;98617.41;5134595;27;20092;-79
2021/12/11 07:31:21;;;;;;;17.55;11.57;;;;;;;0.99;100.00;98606.81;5134228;27;20058;-79
2021/12/11 07:33:49;;;;;;;18.10;11.65;;;;;;;1.08;100.00;98626.56;5142045;27;20056;-79
2021/12/11 07:36:16;;;;;;;18.40;11.35;;;;;;;1.18;100.00;98624.75;5118731;27;20047;-79
2021/12/11 07:38:43;;;;;;;15.80;10.38;;;;;;;1.16;100.00;98621.38;5144355;27;20074;-79
2021/12/11 07:41:12;;;;;;;21.48;11.85;;;;;;;1.21;100.00;98631.66;5138673;27;20049;-79
2021/12/11 07:43:41;;;;;;;17.38;10.82;;;;;;;1.14;100.00;98623.31;5142615;27;20410;-79
2021/12/11 07:46:13;;;;;;;17.23;10.47;;;;;;;1.12;100.00;98627.97;5137564;27;20482;-78
2021/12/11 07:48:42;;;;;;;17.52;10.32;;;;;;;1.22;100.00;98644.09;5138532;27;20421;-79
2021/12/11 07:51:11;;;;;;;20.30;11.40;;;;;;;1.25;100.00;98654.50;5137478;27;20043;-79
2021/12/11 07:53:40;;;;;;;16.85;10.65;;;;;;;1.22;100.00;98660.16;5134507;27;20482;-79
2021/12/11 07:56:07;;;;;;;14.88;10.60;;;;;;;1.25;100.00;98665.22;5128613;27;20058;-79
2021/12/11 07:58:35;;;;;;;21.08;11.75;;;;;;;1.20;100.00;98672.81;5139090;27;20049;-79
2021/12/11 08:01:06;;;;;;;18.55;10.57;;;;;;;1.23;100.00;98692.13;5140438;27;20051;-79
2021/12/11 08:03:33;;;;;;;19.48;11.38;;;;;;;1.28;100.00;98698.91;5139781;27;20049;-79
2021/12/11 08:06:02;;;;;;;19.30;10.90;;;;;;;1.30;100.00;98704.97;5152054;27;20425;-79
2021/12/11 08:08:29;;;;;;;16.65;10.60;;;;;;;1.21;100.00;98710.16;5138640;27;20459;-79
2021/12/11 08:11:01;;;;;;;19.63;10.30;;;;;;;1.24;100.00;98714.41;5143076;27;20394;-79
2021/12/11 08:13:29;;;;;;;18.30;10.50;;;;;;;1.22;100.00;98711.84;5146222;27;20092;-79
2021/12/11 08:15:57;;;;;;;21.38;12.05;;;;;;;1.19;100.00;98713.94;5141400;27;20050;-81
2021/12/11 08:18:27;;;;;;;16.90;10.07;;;;;;;1.19;100.00;98719.28;5138515;27;20051;-79
2021/12/11 08:20:54;;;;;;;20.85;11.10;;;;;;;1.20;100.00;98726.34;5141003;27;20134;-79
2021/12/11 08:23:23;;;;;;;13.68;9.35;;;;;;;1.33;100.00;98747.56;5142538;27;20047;-79
2021/12/11 08:25:51;;;;;;;15.75;9.52;;;;;;;1.30;100.00;98747.81;5142386;27;20070;-79
2021/12/11 08:28:23;;;;;;;15.73;9.30;;;;;;;1.35;100.00;98740.22;5133229;27;20055;-79
2021/12/11 08:30:52;;;;;;;12.02;8.15;;;;;;;1.34;100.00;98754.59;5135542;27;20463;-78
2021/12/11 08:33:22;;;;;;;15.70;10.15;;;;;;;1.34;100.00;98749.22;5137878;27;20509;-79
2021/12/11 08:35:50;;;;;;;15.85;8.52;;;;;;;1.28;100.00;98763.16;5139072;27;20100;-79
2021/12/11 08:38:20;;;;;;;14.82;9.50;;;;;;;1.27;100.00;98753.47;5145412;27;20043;-79
2021/12/11 08:40:53;;;;;;;15.40;8.80;;;;;;;1.48;100.00;98785.53;5141409;27;20516;-79
2021/12/11 08:43:22;;;;;;;15.40;9.88;;;;;;;1.48;100.00;98778.31;5155184;27;20051;-79
2021/12/11 08:46:00;;;;;;;13.90;8.83;;;;;;;1.37;100.00;98775.75;5154866;27;20050;-79
2021/12/11 08:48:32;;;;;;;14.50;9.23;;;;;;;1.42;100.00;98789.59;5150021;27;20090;-79
2021/12/11 08:51:05;;;;;;;14.23;9.27;;;;;;;1.44;100.00;98798.31;5148761;27;20126;-79
2021/12/11 08:53:32;;;;;;;16.77;9.75;;;;;;;1.37;100.00;98789.13;5152583;27;20035;-79
2021/12/11 08:56:01;;;;;;;20.02;11.00;;;;;;;1.42;100.00;98802.97;5145636;27;20412;-80
2021/12/11 08:58:31;;;;;;;17.20;10.27;;;;;;;1.40;100.00;98808.47;5150641;27;20050;-79
2021/12/11 09:01:03;;;;;;;20.45;10.88;;;;;;;1.43;100.00;98820.75;5146277;27;20043;-79
2021/12/11 09:03:40;;;;;;;14.95;9.02;;;;;;;1.42;100.00;98827.09;5135427;27;20074;-79
2021/12/11 09:06:11;;;;;;;17.63;10.45;;;;;;;1.59;100.00;98842.50;5137815;27;20051;-79
2021/12/11 09:08:54;;;;;;;15.55;9.63;;;;;;;1.57;100.00;98849.84;5139395;27;20051;-79
2021/12/11 09:11:28;;;;;;;17.83;10.55;;;;;;;1.38;100.00;98842.56;5138969;27;20400;-79
2021/12/11 09:14:00;;;;;;;14.75;9.82;;;;;;;1.35;100.00;98840.16;5143604;27;20055;-79
2021/12/11 09:16:32;;;;;;;14.90;9.57;;;;;;;1.27;100.00;98840.00;5151941;27;20046;-79
2021/12/11 09:19:05;;;;;;;16.27;9.60;;;;;;;1.39;100.00;98852.31;5144991;27;20122;-78
2021/12/11 09:21:35;;;;;;;16.55;9.63;;;;;;;1.41;100.00;98854.84;5136002;27;20047;-78
2021/12/11 09:24:08;;;;;;;21.30;10.93;;;;;;;1.61;100.00;98873.69;5141141;27;20493;-78
2021/12/11 09:26:40;;;;;;;19.85;11.75;;;;;;;1.42;100.00;98857.41;5142796;27;20043;-79
2021/12/11 09:29:20;;;;;;;19.20;11.23;;;;;;;1.52;100.00;98875.34;5139699;27;20123;-80
2021/12/11 09:32:17;;;;;;;18.50;10.80;;;;;;;1.48;100.00;98879.28;5155084;27;20463;-86
2021/12/11 09:34:53;;;;;;;18.02;11.13;;;;;;;1.58;100.00;98891.75;5155544;27;20058;-86
2021/12/11 09:37:20;;;;;;;19.45;10.95;;;;;;;1.54;100.00;98881.44;5140602;27;20073;-85
2021/12/11 09:39:52;;;;;;;23.13;14.27;;;;;;;1.59;100.00;98892.59;5147007;27;20039;-79
2021/12/11 09:42:19;;;;;;;17.98;11.15;;;;;;;1.64;100.00;98898.41;5144769;27;20050;-78
2021/12/11 09:44:50;;;;;;;18.63;11.23;;;;;;;1.60;100.00;98899.66;5145362;27;20540;-78
2021/12/11 09:47:22;;;;;;;17.23;10.00;;;;;;;1.68;100.00;98905.16;5143610;27;20050;-79
2021/12/11 09:49:57;;;;;;;18.00;10.88;;;;;;;1.53;100.00;98904.69;5141831;27;20051;-79
2021/12/11 10:05:56;;;;;;;16.80;9.70;;;;;;;1.78;100.00;98934.72;5139590;27;20041;-78
2021/12/11 10:08:30;;;;;;;14.45;9.55;;;;;;;1.95;100.00;98943.94;5146247;27;20050;-80
2021/12/11 10:11:07;;;;;;;17.52;10.00;;;;;;;1.87;100.00;98923.19;5148854;27;20092;-80
2021/12/11 10:13:44;;;;;;;14.00;9.35;;;;;;;1.92;100.00;98928.13;5142393;27;20058;-80
2021/12/11 10:16:11;;;;;;;16.02;9.85;;;;;;;1.84;100.00;98936.00;5141444;27;20481;-80
2021/12/11 10:18:38;;;;;;;15.65;9.32;;;;;;;1.95;100.00;98951.97;5137864;27;20410;-80
2021/12/11 10:21:11;;;;;;;16.52;10.20;;;;;;;1.94;100.00;98950.28;5140170;27;20126;-80
2021/12/11 10:23:40;;;;;;;15.45;8.77;;;;;;;1.95;100.00;98942.09;5136845;27;20130;-80
2021/12/11 10:26:10;;;;;;;15.88;9.30;;;;;;;1.94;100.00;98943.09;5144565;27;20050;-80
2021/12/11 10:28:40;;;;;;;14.10;9.52;;;;;;;1.98;100.00;98946.34;5152450;27;20054;-80
2021/12/11 10:31:11;;;;;;;16.42;9.40;;;;;;;2.03;100.00;98952.19;5142042;27;20039;-80
2021/12/11 10:33:38;;;;;;;15.30;9.48;;;;;;;2.12;100.00;98951.34;5145430;27;20047;-80
2021/12/11 10:36:10;;;;;;;14.95;9.75;;;;;;;2.23;100.00;98961.13;5139378;27;20043;-80
2021/12/11 10:38:38;;;;;;;18.98;10.05;;;;;;;2.22;100.00;98961.25;5141921;27;20054;-80
2021/12/11 10:41:08;;;;;;;13.85;8.75;;;;;;;2.16;100.00;98954.59;5134502;27;20134;-80
2021/12/11 10:43:42;;;;;;;17.52;10.75;;;;;;;2.20;100.00;98949.78;5135937;27;20566;-80
2021/12/11 10:46:12;;;;;;;14.90;9.00;;;;;;;2.23;100.00;98955.75;5135554;27;20047;-80
2021/12/11 10:48:39;;;;;;;;;;;;;;;2.29;100.00;98970.47;5146190;27;20118;-80
2021/12/11 10:51:10;;;;;;;14.40;8.45;;;;;;;2.32;100.00;98975.56;5140994;27;19926;-80
2021/12/11 10:53:38;;;;;;;14.93;8.32;;;;;;;2.39;100.00;98979.34;5140622;27;20058;-80
2021/12/11 10:56:08;;;;;;;17.42;9.48;;;;;;;2.43;100.00;98975.44;5134974;27;20047;-80
2021/12/11 10:58:38;;;;;;;14.73;8.95;;;;;;;2.38;100.00;98975.00;5134770;27;20043;-80
2021/12/11 11:01:14;;;;;;;12.20;7.75;;;;;;;2.29;100.00;98960.56;5134483;27;20103;-80
2021/12/11 11:03:53;;;;;;;12.35;7.53;;;;;;;2.40;100.00;98972.19;5139917;27;20581;-80
2021/12/11 11:06:22;;;;;;;10.32;7.10;;;;;;;2.50;100.00;98999.03;5135729;27;20054;-80
2021/12/11 11:08:54;;;;;;;12.57;7.72;;;;;;;2.27;100.00;98965.25;5134436;27;20043;-80
2021/12/11 11:11:24;;;;;;;14.95;8.35;;;;;;;2.41;100.00;98987.28;5152262;27;20474;-80
2021/12/11 11:14:01;;;;;;;14.02;8.35;;;;;;;2.45;100.00;98984.22;5154885;27;20039;-80
2021/12/11 11:16:29;;;;;;;12.05;7.68;;;;;;;2.54;100.00;98984.34;5139555;27;20133;-80
2021/12/11 11:18:56;;;;;;;12.75;7.65;;;;;;;2.62;100.00;99000.59;5154549;27;20047;-80
2021/12/11 11:21:32;;;;;;;10.63;7.20;;;;;;;2.54;100.00;99006.66;5145555;27;20078;-80
2021/12/11 11:24:02;;;;;;;13.20;7.40;;;;;;;2.63;100.00;99010.34;5141925;27;20087;-80
2021/12/11 11:26:32;;;;;;;11.32;7.35;;;;;;;2.60;100.00;99016.00;5134851;27;20555;-80
2021/12/11 11:29:00;;;;;;;10.30;6.55;;;;;;;2.68;100.00;99004.56;5134271;27;20414;-81
2021/12/11 11:31:34;;;;;;;12.43;7.40;;;;;;;2.75;100.00;98993.13;5140333;27;20437;-80
2021/12/11 11:34:02;;;;;;;9.43;5.80;;;;;;;2.73;100.00;99000.50;5134590;27;20042;-80
2021/12/11 11:36:31;;;;;;;8.63;6.18;;;;;;;2.84;100.00;98999.50;5140847;27;20122;-80
2021/12/11 11:39:05;;;;;;;8.60;5.60;;;;;;;2.97;100.00;99026.94;5149308;27;20133;-80
2021/12/11 11:41:35;;;;;;;14.52;7.40;;;;;;;2.95;100.00;99010.13;5137793;27;20118;-79
2021/12/11 11:44:03;;;;;;;12.55;6.85;;;;;;;3.00;100.00;99023.97;5136201;27;20051;-79
2021/12/11 11:46:31;;;;;;;11.07;6.10;;;;;;;3.13;100.00;99041.66;5153172;27;20119;-79
2021/12/11 11:49:00;;;;;;;8.43;5.65;;;;;;;3.15;100.00;99048.59;5140666;27;20088;-80
2021/12/11 11:51:33;;;;;;;12.48;6.10;;;;;;;3.13;100.00;99037.16;5144613;27;20285;-80
2021/12/11 11:54:00;;;;;;;11.30;6.03;;;;;;;3.22;100.00;99039.97;5143419;27;20042;-80
2021/12/11 11:56:29;;;;;;;10.07;6.40;;;;;;;3.17;100.00;99038.53;5134129;27;20051;-80
2021/12/11 11:59:03;;;;;;;11.15;6.32;;;;;;;3.38;100.00;99056.38;5136808;27;20486;-79